Ayers, Illinois
Current Conditions -  °F | °C
As of 8:15 AM on Wednesday 28 Jan 2015 (Local Time) from K3LF Reporting Station
Clear Clear  
Wind Chill: -9°   Ceiling: Unl
Heat Index: -3°   Visibility: 7mi
Dew Point: -5°   Wind: 15mph
Humidity: 86%   Direction: 130°SE
Pressure: 30.24"   Gusts: NA
Location:  38.895°N, 89.397°W
Report Text: K3LF 281415Z AUTO 13013KT 7SM CLR M02/M04 A3024 RMK AO2 T10251045
Loading
Personal Weather Stations






























Interactive Weather Map New forecast layout! Learn more

10-Day Weather Forecast

Advertisements
Track Severe Weather on mobile